Rosedale, Louisiana
Current Conditions -  °F | °C
As of 3:53 PM on Friday 24 Oct 2014 (Local Time) from KBTR Reporting Station
Clear Clear  
Wind Chill: 77°   Ceiling: Unl
Heat Index: 78°   Visibility: 10mi
Dew Point: 45°   Wind: 7mph
Humidity: 32%   Direction: 40°NE
Pressure: 30.06"   Gusts: NA
Location:  30.44°N, 91.45°W
Report Text: KBTR 242053Z 04006KT 10SM CLR 25/07 A3006 RMK AO2 SLP177 T02500072 56016
Loading
Personal Weather Stations






























Interactive Weather Map
Tropical Storm Tracking
New forecast layout! Learn more

10-Day Weather Forecast

Advertisements
Track Severe Weather on mobile